• Join FlightAware (Why Join?)
  • Login
  • US Flag 
02:01AM EDT


 

Airport Tracker/Info


-or-


 

Live Flight TrackerFlight Track Log ✈ N8558W ✈ 13-Feb-2013 ✈ 84R - KFWS

Flight Track Log - Related Links

Times and Time Zones

All times are in EST time to prevent confusion due to time zone crossing. See the N8558W flight status page for this flight to view local times or setup timezone preferences in your user account.

Time Position Orientation Groundspeed Altitude Reporting Facility
EST Latitude Longitude Course Direction KTS MPH feet Rate Location/Type
12:03PM 30.1822 -97.3833 357° North 111 128 5,600  Level Houston Center
12:04PM 30.2133 -97.3847 358° North 110 127 5,600  Level Houston Center
12:05PM 30.2456 -97.3842 North 113 130 5,600  Level Houston Center
12:06PM 30.2772 -97.3817 North 113 130 5,600  Level Houston Center
12:07PM 30.3089 -97.3817 360° North 113 130 5,600  Level Houston Center
12:08PM 30.5369 -97.1947 357° North  Level Estimated
12:08PM 30.3464 -97.3861 354° North 114 131 5,700  Level Houston Center
12:09PM 30.3794 -97.3869 359° North 115 132 5,600 -60 Descending Houston Center
12:10PM 30.4133 -97.3814 North 119 137 5,600  Level Houston Center
12:11PM 30.4464 -97.3742 11° North 120 138 5,600  Level Houston Center
12:12PM 30.4789 -97.3725 North 118 136 5,600  Level Houston Center
12:13PM 30.5119 -97.3703 North 117 135 5,600  Level Houston Center
12:15PM 30.5453 -97.3658 North 118 136 5,600 -60 Level Houston Center
12:16PM 30.5839 -97.3631 North 119 137 5,500  Descending Houston Center
12:17PM 30.6169 -97.3581 North 118 136 5,600  Climbing Houston Center
12:18PM 30.6489 -97.3544 North 116 133 5,600  Level Houston Center
12:19PM 30.6811 -97.3558 358° North 115 132 5,700  Climbing Houston Center
12:20PM 30.7150 -97.3528 North 118 136 5,600 -60 Descending Houston Center
12:21PM 30.7483 -97.3503 North 119 137 5,600  Level Houston Center
12:22PM 30.7819 -97.3497 North 119 137 5,600  Level Houston Center
12:23PM 30.8211 -97.3461 North 118 136 5,700  Climbing Houston Center
12:24PM 30.8558 -97.3425 North 121 139 5,600 -60 Descending Houston Center
12:25PM 30.8894 -97.3406 North 121 139 5,600  Level Houston Center
12:26PM 30.9236 -97.3344 North 120 138 5,700  Climbing Houston Center
12:27PM 30.9572 -97.3283 North 119 137 5,700 -60 Level Houston Center
12:28PM 30.9906 -97.3253 North 118 136 5,600 -60 Descending Houston Center
12:29PM 31.0247 -97.3222 North 119 137 5,600  Level Houston Center
12:30PM 31.0572 -97.3169 North 118 136 5,600  Level Houston Center
12:31PM 31.0903 -97.3125 North 118 136 5,700  Climbing Houston Center
12:32PM 31.1231 -97.3136 358° North 117 135 5,600  Descending Houston Center
12:33PM 31.1614 -97.3175 355° North 117 135 5,700  Climbing Houston Center
12:34PM 31.1933 -97.3236 351° North 116 133 5,600  Descending Houston Center
12:35PM 31.2253 -97.3272 354° North 114 131 5,700  Climbing Houston Center
12:36PM 31.2567 -97.3319 353° North 114 131 5,700  Level Houston Center
12:37PM 31.2897 -97.3319 360° North 115 132 5,700  Level Houston Center
12:38PM 31.3217 -97.3350 355° North 115 132 5,700 -60 Level Houston Center
12:39PM 31.3536 -97.3397 353° North 114 131 5,600 -60 Descending Houston Center
12:40PM 31.3908 -97.3392 North 114 131 5,600  Level Houston Center
12:41PM 31.4225 -97.3383 North 113 130 5,600  Level Houston Center
12:42PM 31.4550 -97.3411 356° North 114 131 5,600  Level Houston Center
12:43PM 31.4861 -97.3450 354° North 113 130 5,600  Level Houston Center
12:45PM 31.5186 -97.3453 360° North 114 131 5,600  Level Houston Center
12:46PM 31.5514 -97.3433 North 115 132 5,600  Level Houston Center
12:47PM 31.5839 -97.3433 360° North 116 133 5,700  Climbing Houston Center
12:48PM 31.6219 -97.3425 North 116 133 5,700 -120 Level Houston Center
12:49PM 31.6550 -97.3425 360° North 116 133 5,500 -60 Descending Houston Center
12:50PM 31.6875 -97.3425 360° North 116 133 5,600 60 Climbing Houston Center
12:51PM 31.7194 -97.3425 360° North 115 132 5,700  Climbing Houston Center
12:52PM 31.7525 -97.3417 North 115 132 5,700 -60 Level Houston Center
12:53PM 31.7856 -97.3408 North 117 135 5,600 -120 Descending Houston Center
12:54PM 31.8183 -97.3386 North 117 135 5,500  Descending Houston Center
12:55PM 31.8558 -97.3386 360° North 115 132 5,600 60 Climbing Houston Center
12:56PM 31.8878 -97.3364 North 114 131 5,700 60 Climbing Houston Center